Time;durP1;ratioP1;P1;durP2;ratioP2;P2;SDS_P1;SDS_P2;PMS_P1;PMS_P2;Temp;Humidity;BMP_temperature;BMP_pressure;BME280_temperature;BME280_humidity;BME280_pressure;Samples;Min_cycle;Max_cycle;Signal;HPM_P1;HPM_P2
2022/09/19 00:00:34;;;;;;;;;;;11.30;99.90;;;;;;5027954;28;19925;-70
2022/09/19 00:03:00;;;;;;;;;;;11.30;99.90;;;;;;5026171;28;20036;-69
2022/09/19 00:05:25;;;;;;;;;;;11.30;99.90;;;;;;5062611;28;19929;-69
2022/09/19 00:07:51;;;;;;;;;;;11.40;99.90;;;;;;5030969;28;19928;-69
2022/09/19 00:10:16;;;;;;;;;;;11.40;99.90;;;;;;5026974;28;20062;-69
2022/09/19 00:12:42;;;;;;;;;;;11.30;99.90;;;;;;5011154;28;21312;-70
2022/09/19 00:15:07;;;;;;;;;;;11.30;99.90;;;;;;5063280;28;19929;-70
2022/09/19 00:17:33;;;;;;;;;;;11.30;99.90;;;;;;5061770;28;20293;-70
2022/09/19 00:19:58;;;;;;;;;;;11.30;99.90;;;;;;5027110;28;19937;-70
2022/09/19 00:22:24;;;;;;;;;;;11.30;99.90;;;;;;5026879;28;19925;-70
2022/09/19 00:24:49;;;;;;;;;;;11.30;99.90;;;;;;5029085;28;20353;-70
2022/09/19 00:27:18;;;;;;;;;;;11.30;99.90;;;;;;5052960;28;19932;-70
2022/09/19 00:29:43;;;;;;;;;;;11.30;99.90;;;;;;5029031;28;19933;-70
2022/09/19 00:32:11;;;;;;;;;;;11.30;99.90;;;;;;5025266;28;19940;-70
2022/09/19 00:34:39;;;;;;;;;;;11.30;99.90;;;;;;5056028;28;19988;-70
2022/09/19 00:37:05;;;;;;;;;;;11.30;99.90;;;;;;5028480;28;19925;-70
2022/09/19 00:39:31;;;;;;;;;;;11.30;99.90;;;;;;5012056;28;19921;-70
2022/09/19 00:41:56;;;;;;;;;;;11.30;99.90;;;;;;5018026;28;19976;-70
2022/09/19 00:44:22;;;;;;;;;;;11.30;99.90;;;;;;5034980;28;20023;-70
2022/09/19 00:46:49;;;;;;;;;;;11.30;99.90;;;;;;5061614;28;19971;-71
2022/09/19 00:49:16;;;;;;;;;;;11.30;99.90;;;;;;5023558;28;19927;-70
2022/09/19 00:51:45;;;;;;;;;;;11.30;99.90;;;;;;5028526;28;20038;-70
2022/09/19 00:54:13;;;;;;;;;;;11.40;99.90;;;;;;5061532;28;19964;-70
2022/09/19 00:56:43;;;;;;;;;;;11.40;99.90;;;;;;5063571;28;20036;-70
2022/09/19 00:59:10;;;;;;;;;;;11.40;99.90;;;;;;5060735;28;19925;-70
2022/09/19 01:01:35;;;;;;;;;;;11.40;99.90;;;;;;5011171;28;19944;-70
2022/09/19 01:04:01;;;;;;;;;;;11.40;99.90;;;;;;5025549;28;19922;-70
2022/09/19 01:06:39;;;;;;;;;;;11.30;99.90;;;;;;5066161;28;20012;-70
2022/09/19 01:09:05;;;;;;;;;;;11.30;99.90;;;;;;5027582;28;19925;-70
2022/09/19 01:11:36;;;;;;;;;;;11.20;99.90;;;;;;5032386;28;19925;-70
2022/09/19 01:14:11;;;;;;;;;;;11.20;99.90;;;;;;5057067;28;19921;-70
2022/09/19 01:16:41;;;;;;;;;;;11.20;99.90;;;;;;5057634;28;19921;-70
2022/09/19 01:19:19;;;;;;;;;;;11.20;99.90;;;;;;5061987;28;19925;-70
2022/09/19 01:21:52;;;;;;;;;;;11.20;99.90;;;;;;5031686;28;19921;-70
2022/09/19 01:24:19;;;;;;;;;;;11.20;99.90;;;;;;5015787;28;19932;-70
2022/09/19 01:26:58;;;;;;;;;;;11.20;99.90;;;;;;5063497;28;20004;-70
2022/09/19 01:29:37;;;;;;;;;;;11.20;99.90;;;;;;5063630;28;20918;-70
2022/09/19 01:32:05;;;;;;;;;;;11.20;99.90;;;;;;5065053;28;19921;-70
2022/09/19 01:34:33;;;;;;;;;;;11.20;99.90;;;;;;5032222;28;20520;-70
2022/09/19 01:37:12;;;;;;;;;;;11.20;99.90;;;;;;5066069;28;20020;-69
2022/09/19 01:39:39;;;;;;;;;;;11.20;99.90;;;;;;5064471;28;19925;-69
2022/09/19 01:42:05;;;;;;;;;;;11.30;99.90;;;;;;5033031;28;20405;-69
2022/09/19 01:44:31;;;;;;;;;;;11.30;99.90;;;;;;5033045;28;19925;-70
2022/09/19 01:47:15;;;;;;;;;;;11.30;99.90;;;;;;5064426;28;20016;-70
2022/09/19 01:49:51;;;;;;;;;;;11.30;99.90;;;;;;5058074;28;19921;-70
2022/09/19 01:52:27;;;;;;;;;;;11.40;99.90;;;;;;5064174;28;19928;-70
2022/09/19 01:54:55;;;;;;;;;;;11.30;99.90;;;;;;5030742;28;19921;-70
2022/09/19 01:57:41;;;;;;;;;;;11.30;99.90;;;;;;5032129;28;20381;-70
2022/09/19 02:00:18;;;;;;;;;;;11.30;99.90;;;;;;5026558;28;20040;-70
2022/09/19 02:03:07;;;;;;;;;;;11.40;99.90;;;;;;5030808;28;19970;-70
2022/09/19 02:05:37;;;;;;;;;;;11.40;99.90;;;;;;5064692;28;19925;-70
2022/09/19 02:08:02;;;;;;;;;;;11.40;99.90;;;;;;5018747;28;19936;-70
2022/09/19 02:10:30;;;;;;;;;;;11.40;99.90;;;;;;5033307;28;19952;-70
2022/09/19 02:12:56;;;;;;;;;;;11.50;99.90;;;;;;5031877;28;19928;-70
2022/09/19 02:15:25;;;;;;;;;;;11.50;99.90;;;;;;5056961;28;19936;-70
2022/09/19 02:17:55;;;;;;;;;;;11.50;99.90;;;;;;5017808;28;19929;-70
2022/09/19 02:20:25;;;;;;;;;;;11.40;99.90;;;;;;5019585;28;19945;-70
2022/09/19 02:22:53;;;;;;;;;;;11.40;99.90;;;;;;5024823;28;19928;-70
2022/09/19 02:25:22;;;;;;;;;;;11.40;99.90;;;;;;5047970;28;19940;-70
2022/09/19 02:27:54;;;;;;;;;;;11.40;99.90;;;;;;5030959;28;19968;-70
2022/09/19 02:30:20;;;;;;;;;;;11.40;99.90;;;;;;5060953;28;19932;-70
2022/09/19 02:32:49;;;;;;;;;;;11.40;99.90;;;;;;5028752;28;19960;-70
2022/09/19 02:35:34;;;;;;;;;;;11.40;99.90;;;;;;5029419;28;20007;-70
2022/09/19 02:38:04;;;;;;;;;;;11.40;99.90;;;;;;5030355;28;19925;-70
2022/09/19 02:40:45;;;;;;;;;;;11.40;99.90;;;;;;5064433;28;19979;-70
2022/09/19 02:43:14;;;;;;;;;;;11.40;99.90;;;;;;5061848;28;20000;-70
2022/09/19 02:45:43;;;;;;;;;;;11.40;99.90;;;;;;5059551;28;19932;-70
2022/09/19 02:48:11;;;;;;;;;;;11.40;99.90;;;;;;5064560;28;19925;-70
2022/09/19 02:50:40;;;;;;;;;;;11.40;99.90;;;;;;5062093;28;19944;-70
2022/09/19 02:53:08;;;;;;;;;;;11.40;99.90;;;;;;5032034;28;20494;-70
2022/09/19 02:55:39;;;;;;;;;;;11.40;99.90;;;;;;4976078;28;19933;-70
2022/09/19 02:58:05;;;;;;;;;;;11.40;99.90;;;;;;5005079;28;19925;-70
2022/09/19 03:00:32;;;;;;;;;;;11.50;99.90;;;;;;5035641;28;19925;-70
2022/09/19 03:04:11;;;;;;;;;;;11.50;99.90;;;;;;4996578;28;19922;-70
2022/09/19 03:05:50;;;;;;;;;;;11.40;99.90;;;;;;5031415;28;19936;-70
2022/09/19 03:08:16;;;;;;;;;;;11.50;99.90;;;;;;5040324;28;19922;-70
2022/09/19 03:10:46;;;;;;;;;;;11.40;99.90;;;;;;4976611;28;19933;-70
2022/09/19 03:13:12;;;;;;;;;;;11.50;99.90;;;;;;5006852;28;19925;-70
2022/09/19 03:15:55;;;;;;;;;;;11.40;99.90;;;;;;5026307;28;19930;-70
2022/09/19 03:18:21;;;;;;;;;;;11.40;99.90;;;;;;4993756;28;19931;-70
2022/09/19 03:20:48;;;;;;;;;;;11.40;99.90;;;;;;5042585;28;20495;-70
2022/09/19 03:23:17;;;;;;;;;;;11.40;99.90;;;;;;4993353;28;19925;-70
2022/09/19 03:25:43;;;;;;;;;;;11.40;99.90;;;;;;5019868;28;19929;-70
2022/09/19 03:28:08;;;;;;;;;;;11.30;99.90;;;;;;5025927;28;19944;-70
2022/09/19 03:30:34;;;;;;;;;;;11.30;99.90;;;;;;5040484;28;19921;-70
2022/09/19 03:32:59;;;;;;;;;;;11.20;99.90;;;;;;5003072;28;19929;-70
2022/09/19 03:35:25;;;;;;;;;;;11.20;99.90;;;;;;5008585;28;20044;-70
2022/09/19 03:37:51;;;;;;;;;;;11.20;99.90;;;;;;5003682;28;19951;-70
2022/09/19 03:40:16;;;;;;;;;;;11.20;99.90;;;;;;4994426;28;19925;-70
2022/09/19 03:42:46;;;;;;;;;;;11.20;99.90;;;;;;5000619;28;20029;-70
2022/09/19 03:45:11;;;;;;;;;;;11.20;99.90;;;;;;4978801;28;19930;-70
2022/09/19 03:47:37;;;;;;;;;;;11.30;99.90;;;;;;4976293;28;19930;-70
2022/09/19 03:50:03;;;;;;;;;;;11.30;99.90;;;;;;4995858;28;19932;-70
2022/09/19 03:52:29;;;;;;;;;;;11.30;99.90;;;;;;4978648;28;19989;-70
2022/09/19 03:54:54;;;;;;;;;;;11.40;99.90;;;;;;5036314;28;20008;-70
2022/09/19 03:57:20;;;;;;;;;;;11.40;99.90;;;;;;5030259;28;20629;-70
2022/09/19 03:59:45;;;;;;;;;;;11.50;99.90;;;;;;5007929;28;20029;-70
2022/09/19 04:02:11;;;;;;;;;;;11.50;99.90;;;;;;5024751;28;19979;-71
2022/09/19 04:04:37;;;;;;;;;;;11.50;99.90;;;;;;5028921;28;19928;-70
2022/09/19 04:07:03;;;;;;;;;;;11.50;99.90;;;;;;5018270;28;20410;-70
2022/09/19 04:09:28;;;;;;;;;;;11.50;99.90;;;;;;5007083;28;19967;-70
2022/09/19 04:11:56;;;;;;;;;;;11.50;99.90;;;;;;5057654;28;19925;-70
2022/09/19 04:14:22;;;;;;;;;;;11.50;99.90;;;;;;5063056;28;20298;-70
2022/09/19 04:16:47;;;;;;;;;;;11.40;99.90;;;;;;5045951;28;19921;-70
2022/09/19 04:19:13;;;;;;;;;;;11.40;99.90;;;;;;5016961;28;19996;-70
2022/09/19 04:21:42;;;;;;;;;;;11.30;99.90;;;;;;5008083;28;20421;-70
2022/09/19 04:24:08;;;;;;;;;;;11.30;99.90;;;;;;5041392;28;19977;-70
2022/09/19 04:26:33;;;;;;;;;;;11.30;99.90;;;;;;5008889;28;19964;-70
2022/09/19 04:29:02;;;;;;;;;;;11.30;99.90;;;;;;5044684;28;19979;-70
2022/09/19 04:31:28;;;;;;;;;;;11.30;99.90;;;;;;5012526;28;20486;-70
2022/09/19 04:33:56;;;;;;;;;;;11.40;99.90;;;;;;5006205;28;19983;-70
2022/09/19 04:36:23;;;;;;;;;;;11.40;99.90;;;;;;5057692;28;20016;-70
2022/09/19 04:38:52;;;;;;;;;;;11.40;99.90;;;;;;5042097;28;19936;-70
2022/09/19 04:41:18;;;;;;;;;;;11.40;99.90;;;;;;5008808;28;20547;-70
2022/09/19 04:43:46;;;;;;;;;;;11.50;99.90;;;;;;5041328;28;19936;-70
2022/09/19 04:46:12;;;;;;;;;;;11.50;99.90;;;;;;5007131;28;19929;-70
2022/09/19 04:48:38;;;;;;;;;;;11.60;99.90;;;;;;5009717;28;19927;-70
2022/09/19 04:51:05;;;;;;;;;;;11.60;99.90;;;;;;5008668;28;19930;-70
2022/09/19 04:53:31;;;;;;;;;;;11.60;99.90;;;;;;5006537;28;19988;-70
2022/09/19 04:55:57;;;;;;;;;;;11.50;99.90;;;;;;5048388;28;19937;-70
2022/09/19 04:58:22;;;;;;;;;;;11.50;99.90;;;;;;4999238;28;19930;-70
2022/09/19 05:00:53;;;;;;;;;;;11.50;99.90;;;;;;5041601;28;19929;-70
2022/09/19 05:03:19;;;;;;;;;;;11.60;99.90;;;;;;5043549;28;20359;-70
2022/09/19 05:05:50;;;;;;;;;;;11.50;99.90;;;;;;5019187;28;20008;-70
2022/09/19 05:08:18;;;;;;;;;;;11.60;99.90;;;;;;5052952;23;19932;-69
2022/09/19 05:10:45;;;;;;;;;;;11.60;99.90;;;;;;5038608;28;20536;-70
2022/09/19 05:13:10;;;;;;;;;;;11.60;99.90;;;;;;5050520;28;19924;-70
2022/09/19 05:15:41;;;;;;;;;;;11.60;99.90;;;;;;5046694;28;19931;-71
2022/09/19 05:18:10;;;;;;;;;;;11.60;99.90;;;;;;5038208;28;19935;-70
2022/09/19 05:20:36;;;;;;;;;;;11.60;99.90;;;;;;5038801;28;19931;-70
2022/09/19 05:23:02;;;;;;;;;;;11.60;99.90;;;;;;5039404;28;19925;-70
2022/09/19 05:25:28;;;;;;;;;;;11.60;99.90;;;;;;5020299;28;19935;-70
2022/09/19 05:27:55;;;;;;;;;;;11.60;99.90;;;;;;5036699;28;19935;-70
2022/09/19 05:30:24;;;;;;;;;;;11.60;99.90;;;;;;5036862;28;19965;-70
2022/09/19 05:32:50;;;;;;;;;;;11.60;99.90;;;;;;5037183;28;19928;-70
2022/09/19 05:35:16;;;;;;;;;;;11.50;99.90;;;;;;5037159;28;19939;-70
2022/09/19 05:37:42;;;;;;;;;;;11.60;99.90;;;;;;5046035;28;19920;-70
2022/09/19 05:40:10;;;;;;;;;;;11.50;99.90;;;;;;5052457;28;20460;-70
2022/09/19 05:42:42;;;;;;;;;;;11.50;99.90;;;;;;5041457;28;19929;-70
2022/09/19 05:45:09;;;;;;;;;;;11.50;99.90;;;;;;5040195;28;19931;-70
2022/09/19 05:47:35;;;;;;;;;;;11.50;99.90;;;;;;5040049;28;22114;-70
2022/09/19 05:50:00;;;;;;;;;;;11.50;99.90;;;;;;5037630;28;19932;-70
2022/09/19 05:55:10;;;;;;;;;;;11.50;99.90;;;;;;5040252;28;19928;-70
2022/09/19 05:57:35;;;;;;;;;;;11.50;99.90;;;;;;5060245;28;20416;-70
2022/09/19 06:00:01;;;;;;;;;;;11.50;99.90;;;;;;5040324;28;20011;-70
2022/09/19 06:02:27;;;;;;;;;;;11.50;99.90;;;;;;5040161;28;19924;-70
2022/09/19 06:04:53;;;;;;;;;;;11.60;99.90;;;;;;5058464;28;19929;-70
2022/09/19 06:07:20;;;;;;;;;;;11.60;99.90;;;;;;5044400;28;19935;-70
2022/09/19 06:09:45;;;;;;;;;;;11.60;99.90;;;;;;5047531;28;20370;-70
2022/09/19 06:12:11;;;;;;;;;;;11.60;99.90;;;;;;5033910;28;19943;-70
2022/09/19 06:14:38;;;;;;;;;;;11.60;99.90;;;;;;5041823;28;20348;-70
2022/09/19 06:17:04;;;;;;;;;;;11.70;99.90;;;;;;5044894;28;20054;-69
2022/09/19 06:19:29;;;;;;;;;;;11.70;99.90;;;;;;5042654;28;20011;-70
2022/09/19 06:21:56;;;;;;;;;;;11.70;99.90;;;;;;5052016;28;19924;-70
2022/09/19 06:24:21;;;;;;;;;;;11.70;99.90;;;;;;5071031;28;19924;-70
2022/09/19 06:26:47;;;;;;;;;;;11.70;99.90;;;;;;5043763;28;20278;-70
2022/09/19 06:29:12;;;;;;;;;;;11.70;99.90;;;;;;5055171;28;19924;-70
2022/09/19 06:31:38;;;;;;;;;;;11.70;99.90;;;;;;5055281;28;19924;-70
2022/09/19 06:34:04;;;;;;;;;;;11.80;99.90;;;;;;5056011;28;19924;-70
2022/09/19 06:36:29;;;;;;;;;;;11.80;99.90;;;;;;5052197;28;19928;-70
2022/09/19 06:38:55;;;;;;;;;;;11.90;99.90;;;;;;5048865;28;19924;-70
2022/09/19 06:41:21;;;;;;;;;;;12.10;99.90;;;;;;5044923;28;19925;-70
2022/09/19 06:43:46;;;;;;;;;;;12.80;99.90;;;;;;5046874;28;20325;-70
2022/09/19 06:46:12;;;;;;;;;;;13.60;99.90;;;;;;5046769;28;20332;-70
2022/09/19 06:48:37;;;;;;;;;;;13.90;99.90;;;;;;5043504;28;19938;-70
2022/09/19 06:51:03;;;;;;;;;;;14.00;99.90;;;;;;5047236;28;19928;-70
2022/09/19 06:53:30;;;;;;;;;;;14.00;99.90;;;;;;5045170;28;19921;-70
2022/09/19 06:55:56;;;;;;;;;;;14.00;99.90;;;;;;5051065;28;19931;-70
2022/09/19 06:58:21;;;;;;;;;;;13.80;99.90;;;;;;5061759;28;19924;-70
2022/09/19 07:00:47;;;;;;;;;;;13.40;99.90;;;;;;5063476;28;19970;-70
2022/09/19 07:03:16;;;;;;;;;;;13.50;99.90;;;;;;5047446;28;20357;-70
2022/09/19 07:05:42;;;;;;;;;;;13.40;99.90;;;;;;5044972;28;19928;-70
2022/09/19 07:08:08;;;;;;;;;;;13.50;99.90;;;;;;5048269;28;19974;-70
2022/09/19 07:10:35;;;;;;;;;;;13.50;99.90;;;;;;5039418;28;19928;-70
2022/09/19 07:13:01;;;;;;;;;;;13.50;99.90;;;;;;5050179;28;20320;-70
2022/09/19 07:15:27;;;;;;;;;;;13.40;99.90;;;;;;5044375;28;19925;-70
2022/09/19 07:17:56;;;;;;;;;;;13.40;99.90;;;;;;5047965;28;20012;-70
2022/09/19 07:20:23;;;;;;;;;;;13.30;99.90;;;;;;5038326;28;19920;-70
2022/09/19 07:22:59;;;;;;;;;;;13.50;99.90;;;;;;5048863;28;20439;-70
2022/09/19 07:25:24;;;;;;;;;;;14.50;99.90;;;;;;5054662;28;19924;-70
2022/09/19 07:27:54;;;;;;;;;;;15.50;99.90;;;;;;5042708;28;19928;-70
2022/09/19 07:30:19;;;;;;;;;;;15.60;99.90;;;;;;5027829;28;19928;-70
2022/09/19 07:32:45;;;;;;;;;;;15.30;99.90;;;;;;5048273;28;19921;-70
2022/09/19 07:35:10;;;;;;;;;;;15.10;99.90;;;;;;5049533;28;20527;-70
2022/09/19 07:37:36;;;;;;;;;;;15.00;99.90;;;;;;5041303;28;19924;-70
2022/09/19 07:40:02;;;;;;;;;;;14.90;99.90;;;;;;5050351;28;19924;-70
2022/09/19 07:42:28;;;;;;;;;;;14.80;99.90;;;;;;5054564;28;19924;-70
2022/09/19 07:44:54;;;;;;;;;;;14.70;99.90;;;;;;5071240;28;19927;-70
2022/09/19 07:47:28;;;;;;;;;;;14.70;99.90;;;;;;5050532;28;19931;-70
2022/09/19 07:49:54;;;;;;;;;;;14.60;99.90;;;;;;5051691;28;19927;-70
2022/09/19 07:52:21;;;;;;;;;;;14.50;99.90;;;;;;5052376;28;19924;-70
2022/09/19 07:54:47;;;;;;;;;;;14.50;99.90;;;;;;5051562;28;19925;-70
2022/09/19 07:57:12;;;;;;;;;;;14.40;99.90;;;;;;5051287;28;20660;-70
2022/09/19 07:59:39;;;;;;;;;;;14.40;99.90;;;;;;5054204;28;19929;-70
2022/09/19 08:02:07;;;;;;;;;;;14.40;99.90;;;;;;5054598;28;20282;-70
2022/09/19 08:04:33;;;;;;;;;;;14.50;99.90;;;;;;5054146;28;19920;-70
2022/09/19 08:06:58;;;;;;;;;;;14.80;99.90;;;;;;5049611;28;19981;-70
2022/09/19 08:09:23;;;;;;;;;;;15.20;99.90;;;;;;5045014;28;20354;-70
2022/09/19 08:11:49;;;;;;;;;;;15.30;99.90;;;;;;5046832;28;20015;-71
2022/09/19 08:14:14;;;;;;;;;;;15.30;99.90;;;;;;5049752;28;19936;-71
2022/09/19 08:16:40;;;;;;;;;;;15.30;99.90;;;;;;5052161;28;19954;-71
2022/09/19 08:19:05;;;;;;;;;;;15.00;99.90;;;;;;5051100;28;20015;-70
2022/09/19 08:21:31;;;;;;;;;;;14.70;99.90;;;;;;5053942;28;19921;-70
2022/09/19 08:23:57;;;;;;;;;;;14.70;99.90;;;;;;5053846;28;19927;-70
2022/09/19 08:26:24;;;;;;;;;;;14.60;99.90;;;;;;5054000;28;19925;-70
2022/09/19 08:28:50;;;;;;;;;;;14.40;99.90;;;;;;5047482;28;19920;-70
2022/09/19 08:31:16;;;;;;;;;;;14.30;99.90;;;;;;5068438;28;20050;-70
2022/09/19 08:33:41;;;;;;;;;;;14.20;99.90;;;;;;5037441;28;19977;-70
2022/09/19 08:36:07;;;;;;;;;;;14.20;99.90;;;;;;5053671;28;19924;-70
2022/09/19 08:38:33;;;;;;;;;;;14.30;99.90;;;;;;5053740;28;19924;-70
2022/09/19 08:41:07;;;;;;;;;;;14.30;99.90;;;;;;5053685;28;19951;-70
2022/09/19 08:43:52;;;;;;;;;;;14.40;99.90;;;;;;5052935;28;19924;-70
2022/09/19 08:46:21;;;;;;;;;;;14.40;99.90;;;;;;5050944;28;19925;-70
2022/09/19 08:48:53;;;;;;;;;;;14.60;99.90;;;;;;5048686;28;19924;-70
2022/09/19 08:51:18;;;;;;;;;;;14.80;99.90;;;;;;5035480;28;19932;-71
2022/09/19 08:53:46;;;;;;;;;;;14.90;99.90;;;;;;5052648;28;20291;-71
2022/09/19 08:56:13;;;;;;;;;;;15.00;99.90;;;;;;5050900;28;19947;-71
2022/09/19 08:58:44;;;;;;;;;;;15.00;99.90;;;;;;5036986;28;19974;-71
2022/09/19 09:01:09;;;;;;;;;;;15.20;99.90;;;;;;5051569;28;20015;-70
2022/09/19 09:03:45;;;;;;;;;;;15.30;99.90;;;;;;5034871;28;20373;-71
2022/09/19 09:06:22;;;;;;;;;;;15.40;99.90;;;;;;5047943;28;19945;-71
2022/09/19 09:09:06;;;;;;;;;;;15.50;99.90;;;;;;5021121;28;19925;-72
2022/09/19 09:11:35;;;;;;;;;;;15.60;99.90;;;;;;5048030;28;19928;-72
2022/09/19 09:14:33;;;;;;;;;;;15.60;99.90;;;;;;5047159;28;20617;-72
2022/09/19 09:17:17;;;;;;;;;;;15.70;99.90;;;;;;4991670;28;19928;-71
2022/09/19 09:19:45;;;;;;;;;;;15.80;99.90;;;;;;5031645;28;20320;-71
2022/09/19 09:22:11;;;;;;;;;;;15.80;99.90;;;;;;5046807;28;19921;-71
2022/09/19 09:24:38;;;;;;;;;;;15.70;99.90;;;;;;5044302;28;19924;-71
2022/09/19 09:27:06;;;;;;;;;;;15.70;99.90;;;;;;5054562;28;19948;-71
2022/09/19 09:29:41;;;;;;;;;;;15.90;99.90;;;;;;5048579;28;20377;-71
2022/09/19 09:32:16;;;;;;;;;;;15.90;99.90;;;;;;5049279;28;19925;-71
2022/09/19 09:35:00;;;;;;;;;;;16.00;99.90;;;;;;5054031;28;19926;-72
2022/09/19 09:37:32;;;;;;;;;;;16.10;99.90;;;;;;5056542;28;19929;-71
2022/09/19 09:40:08;;;;;;;;;;;16.20;99.90;;;;;;5048369;28;20362;-71
2022/09/19 09:42:45;;;;;;;;;;;16.30;99.90;;;;;;5048890;28;20376;-71
2022/09/19 09:45:29;;;;;;;;;;;16.40;99.90;;;;;;5056305;28;19964;-71
2022/09/19 09:48:08;;;;;;;;;;;16.30;99.90;;;;;;5051614;28;20019;-72
2022/09/19 09:50:52;;;;;;;;;;;16.30;99.90;;;;;;5048584;28;19920;-71
2022/09/19 09:53:21;;;;;;;;;;;16.10;99.90;;;;;;5046164;28;19935;-71
2022/09/19 09:58:40;;;;;;;;;;;15.60;99.90;;;;;;5057511;28;20006;-71
2022/09/19 10:04:06;;;;;;;;;;;16.00;99.90;;;;;;5054161;28;20003;-71
2022/09/19 10:06:38;;;;;;;;;;;16.40;99.90;;;;;;5043534;28;20036;-72
2022/09/19 10:09:22;;;;;;;;;;;16.50;99.90;;;;;;5051462;28;19971;-72
2022/09/19 10:12:07;;;;;;;;;;;16.20;99.90;;;;;;5050014;28;19936;-72
2022/09/19 10:14:35;;;;;;;;;;;15.80;99.90;;;;;;5054804;28;20374;-72
2022/09/19 10:17:01;;;;;;;;;;;15.30;99.90;;;;;;5056197;28;19921;-72
2022/09/19 10:19:36;;;;;;;;;;;14.90;99.90;;;;;;5060574;28;19924;-72
2022/09/19 10:22:01;;;;;;;;;;;14.40;99.90;;;;;;5038767;28;19924;-72
2022/09/19 10:24:46;;;;;;;;;;;14.10;99.90;;;;;;5061576;28;19928;-72
2022/09/19 10:27:14;;;;;;;;;;;14.10;99.90;;;;;;5053049;28;19931;-72
2022/09/19 10:29:51;;;;;;;;;;;13.90;99.90;;;;;;5053343;28;19921;-72
2022/09/19 10:32:19;;;;;;;;;;;13.70;99.90;;;;;;5026573;28;19924;-72
2022/09/19 10:34:45;;;;;;;;;;;13.60;99.90;;;;;;5057871;28;19966;-71
2022/09/19 10:37:14;;;;;;;;;;;13.60;99.90;;;;;;5053898;28;19956;-71
2022/09/19 10:39:44;;;;;;;;;;;13.40;99.90;;;;;;5054862;28;19932;-71
2022/09/19 10:42:25;;;;;;;;;;;13.30;99.90;;;;;;5036780;28;19921;-71
2022/09/19 10:44:52;;;;;;;;;;;13.20;99.90;;;;;;5041935;28;20045;-71
2022/09/19 10:47:18;;;;;;;;;;;13.30;99.90;;;;;;5048517;28;19932;-71
2022/09/19 10:49:45;;;;;;;;;;;13.40;99.90;;;;;;5049320;28;19946;-71
2022/09/19 10:52:13;;;;;;;;;;;13.50;99.90;;;;;;5038074;28;19920;-71
2022/09/19 10:54:40;;;;;;;;;;;13.60;99.90;;;;;;5053990;28;19956;-72
2022/09/19 10:57:26;;;;;;;;;;;13.70;99.90;;;;;;5053943;28;19990;-71
2022/09/19 10:59:52;;;;;;;;;;;13.80;99.90;;;;;;5054177;28;19963;-71
2022/09/19 11:02:21;;;;;;;;;;;14.00;99.90;;;;;;5054519;28;19931;-71
2022/09/19 11:05:00;;;;;;;;;;;14.30;99.90;;;;;;5051940;28;20289;-71
2022/09/19 11:07:31;;;;;;;;;;;14.60;99.90;;;;;;5051771;28;19928;-71
2022/09/19 11:10:01;;;;;;;;;;;14.90;99.90;;;;;;5050603;28;20278;-71
2022/09/19 11:12:27;;;;;;;;;;;15.10;99.90;;;;;;5049095;28;19925;-72
2022/09/19 11:14:55;;;;;;;;;;;15.40;99.90;;;;;;5052184;28;20565;-72
2022/09/19 11:17:25;;;;;;;;;;;15.40;99.90;;;;;;5053880;28;19974;-72
2022/09/19 11:19:51;;;;;;;;;;;15.60;99.90;;;;;;5050766;28;19920;-72
2022/09/19 11:22:44;;;;;;;;;;;15.70;99.90;;;;;;5053899;28;19966;-72
2022/09/19 11:25:23;;;;;;;;;;;15.80;99.90;;;;;;5050529;28;19921;-71
2022/09/19 11:28:01;;;;;;;;;;;15.70;99.90;;;;;;5045665;28;19977;-71
2022/09/19 11:30:27;;;;;;;;;;;15.70;99.90;;;;;;5043996;28;19920;-71
2022/09/19 11:33:00;;;;;;;;;;;15.70;99.90;;;;;;5044471;28;20057;-71
2022/09/19 11:35:32;;;;;;;;;;;15.80;99.90;;;;;;5054173;28;19920;-71
2022/09/19 11:37:58;;;;;;;;;;;15.90;99.90;;;;;;5051992;28;19920;-71
2022/09/19 11:40:30;;;;;;;;;;;15.80;99.90;;;;;;5051132;28;19924;-71
2022/09/19 11:43:08;;;;;;;;;;;15.60;99.90;;;;;;5053573;28;19928;-71
2022/09/19 11:45:53;;;;;;;;;;;15.40;99.90;;;;;;5036495;28;19920;-71
2022/09/19 11:48:27;;;;;;;;;;;15.30;99.90;;;;;;5059675;28;20044;-71
2022/09/19 11:51:13;;;;;;;;;;;15.40;99.90;;;;;;5048253;28;19920;-71
2022/09/19 11:53:47;;;;;;;;;;;15.50;99.90;;;;;;5047820;28;19929;-71
2022/09/19 11:56:39;;;;;;;;;;;15.50;99.90;;;;;;5048493;28;20294;-71
2022/09/19 11:59:16;;;;;;;;;;;15.50;99.90;;;;;;5044710;28;19923;-71
2022/09/19 12:01:50;;;;;;;;;;;15.40;99.90;;;;;;5047589;28;19958;-71
2022/09/19 12:04:15;;;;;;;;;;;15.50;99.90;;;;;;5047695;28;20266;-71
2022/09/19 12:06:47;;;;;;;;;;;15.50;99.90;;;;;;5052718;28;19978;-71
2022/09/19 12:09:25;;;;;;;;;;;15.60;99.90;;;;;;5034977;28;19920;-71
2022/09/19 12:12:02;;;;;;;;;;;15.80;99.90;;;;;;5046784;28;19959;-71
2022/09/19 12:14:31;;;;;;;;;;;15.80;99.90;;;;;;5053110;28;19924;-72
2022/09/19 12:17:00;;;;;;;;;;;15.90;99.90;;;;;;5054956;28;20346;-71
2022/09/19 12:19:33;;;;;;;;;;;15.80;99.90;;;;;;5053452;28;19924;-71
2022/09/19 12:22:06;;;;;;;;;;;15.90;99.90;;;;;;5053144;28;19925;-71
2022/09/19 12:24:53;;;;;;;;;;;16.10;99.90;;;;;;5052561;28;19932;-71
2022/09/19 12:27:27;;;;;;;;;;;16.30;99.90;;;;;;5047327;28;19982;-72
2022/09/19 12:30:13;;;;;;;;;;;16.60;99.90;;;;;;5045364;28;19925;-71
2022/09/19 12:32:52;;;;;;;;;;;16.60;99.90;;;;;;5042610;28;19920;-71
2022/09/19 12:35:25;;;;;;;;;;;16.70;99.90;;;;;;5032514;28;19935;-71
2022/09/19 12:38:15;;;;;;;;;;;16.50;99.90;;;;;;5041442;28;19963;-71
2022/09/19 12:41:01;;;;;;;;;;;16.50;99.90;;;;;;5013184;28;19924;-69
2022/09/19 12:43:50;;;;;;;;;;;16.40;99.90;;;;;;5001788;28;19924;-69
2022/09/19 12:46:35;;;;;;;;;;;16.50;99.90;;;;;;5036980;28;19928;-69
2022/09/19 12:49:19;;;;;;;;;;;16.50;99.90;;;;;;5072315;28;19920;-71
2022/09/19 12:51:53;;;;;;;;;;;16.20;99.90;;;;;;5037680;28;19975;-71
2022/09/19 12:54:27;;;;;;;;;;;16.40;99.90;;;;;;5043901;28;19966;-71
2022/09/19 12:57:03;;;;;;;;;;;16.40;99.90;;;;;;5040206;28;19950;-71
2022/09/19 12:59:30;;;;;;;;;;;16.50;99.90;;;;;;5047663;28;19930;-71
2022/09/19 13:02:01;;;;;;;;;;;16.40;99.90;;;;;;5054416;28;19975;-71
2022/09/19 13:04:27;;;;;;;;;;;16.50;99.90;;;;;;5064613;28;20019;-70
2022/09/19 13:06:57;;;;;;;;;;;16.50;99.90;;;;;;5051314;28;19974;-70
2022/09/19 13:09:31;;;;;;;;;;;16.70;99.90;;;;;;5038894;28;19920;-71
2022/09/19 13:12:00;;;;;;;;;;;16.80;99.90;;;;;;5045415;28;20535;-71
2022/09/19 13:14:30;;;;;;;;;;;17.10;99.90;;;;;;5044061;28;19929;-71
2022/09/19 13:25:29;;;;;;;;;;;16.50;99.90;;;;;;5065031;28;20305;-71
2022/09/19 13:28:13;;;;;;;;;;;16.40;99.90;;;;;;5035506;28;19929;-71
2022/09/19 13:30:50;;;;;;;;;;;16.40;99.90;;;;;;5051024;28;20413;-71
2022/09/19 13:33:21;;;;;;;;;;;16.30;99.90;;;;;;5051368;28;20370;-71
2022/09/19 13:35:47;;;;;;;;;;;16.50;99.90;;;;;;5054695;28;19924;-71
2022/09/19 13:38:25;;;;;;;;;;;16.70;99.90;;;;;;5058107;28;19920;-70
2022/09/19 13:40:57;;;;;;;;;;;16.90;99.90;;;;;;5054975;28;19933;-70
2022/09/19 13:43:25;;;;;;;;;;;16.90;99.90;;;;;;5036224;28;19924;-70
2022/09/19 13:46:00;;;;;;;;;;;16.80;99.90;;;;;;5043552;28;20289;-70
2022/09/19 13:48:32;;;;;;;;;;;16.50;99.90;;;;;;5048753;28;19924;-70
2022/09/19 13:51:09;;;;;;;;;;;16.20;99.90;;;;;;5039029;28;20019;-70
2022/09/19 13:53:38;;;;;;;;;;;16.20;99.90;;;;;;5056793;28;19933;-71
2022/09/19 13:56:23;;;;;;;;;;;16.00;99.90;;;;;;5055418;28;19986;-71
2022/09/19 13:58:52;;;;;;;;;;;15.90;99.90;;;;;;5050440;28;20269;-71
2022/09/19 14:01:22;;;;;;;;;;;15.70;99.90;;;;;;5044003;28;20451;-71
2022/09/19 14:03:53;;;;;;;;;;;15.80;99.90;;;;;;5051051;28;19928;-71
2022/09/19 14:06:30;;;;;;;;;;;15.80;99.90;;;;;;5053927;28;20266;-71
2022/09/19 14:09:14;;;;;;;;;;;15.70;99.90;;;;;;5055802;28;19929;-71
2022/09/19 14:11:40;;;;;;;;;;;15.90;99.90;;;;;;5047326;28;19932;-71
2022/09/19 14:14:25;;;;;;;;;;;15.90;99.90;;;;;;5049478;28;19921;-71
2022/09/19 14:17:10;;;;;;;;;;;16.00;99.90;;;;;;5040278;28;19936;-71
2022/09/19 14:19:48;;;;;;;;;;;16.00;99.90;;;;;;5055100;28;19924;-72
2022/09/19 14:22:30;;;;;;;;;;;15.80;99.90;;;;;;5054478;28;19928;-71
2022/09/19 14:25:02;;;;;;;;;;;15.70;99.90;;;;;;5049036;28;19924;-71
2022/09/19 14:27:41;;;;;;;;;;;15.60;99.90;;;;;;5040557;28;20527;-71
2022/09/19 14:30:23;;;;;;;;;;;15.60;99.90;;;;;;5041727;28;19978;-71
2022/09/19 14:32:58;;;;;;;;;;;15.50;99.90;;;;;;5022454;28;19925;-71
2022/09/19 14:35:39;;;;;;;;;;;15.60;99.90;;;;;;5064565;28;20365;-71
2022/09/19 14:38:23;;;;;;;;;;;15.60;99.90;;;;;;5042739;28;19921;-71
2022/09/19 14:41:02;;;;;;;;;;;15.50;99.90;;;;;;5041758;28;19968;-71
2022/09/19 14:43:27;;;;;;;;;;;15.60;99.90;;;;;;5053992;28;19920;-71
2022/09/19 14:45:53;;;;;;;;;;;15.80;99.90;;;;;;5034070;28;19925;-71
2022/09/19 14:48:28;;;;;;;;;;;15.90;99.90;;;;;;5051008;28;19970;-71
2022/09/19 14:50:56;;;;;;;;;;;15.90;99.90;;;;;;5048140;28;19922;-71